Terminal Aerodrome Forecast
Issued by NWS Jackson, MS

Home | Current Version | Previous Version | Text Only | Print | Product List | Glossary On
Versions: 1 2 3 4 5 6 7 8 9 10 11 12 13 14 15 16
000
FTUS44 KMEG 221904 AAA
TAFTUP
TAF AMD
KTUP 221904Z 2219/2318 02007KT P6SM FEW020 BKN040
     FM222100 10004KT P6SM BKN020
     FM222300 VRB03KT P6SM SCT250
     FM230600 00000KT 4SM BR BKN012
      TEMPO 2308/2312 2SM BR OVC003
     FM231500 19004KT P6SM OVC007=

USA.gov is the U.S. government's official web portal to all federal, state and local government web resources and services.